Columbia, North Carolina
Current Conditions -  °F | °C
As of 12:55 PM on Friday 24 Oct 2014 (Local Time) from KEDE Reporting Station
Clear Clear  
Wind Chill: 65°   Ceiling: Unl
Heat Index: 65°   Visibility: 10mi
Dew Point: 46°   Wind: 12mph
Humidity: 51%   Direction: 350°N
Pressure: 29.99"   Gusts: NA
Location:  35.92°N, 76.25°W
Report Text: KEDE 241655Z AUTO 35010KT 10SM CLR 18/08 A2999 RMK AO2 T01820079
Loading
Personal Weather Stations






























Interactive Weather Map
Tropical Storm Tracking
New forecast layout! Learn more

10-Day Weather Forecast

Advertisements
Track Severe Weather on mobile